DNAA/ABV METAR and TAF weather

Enter ICAO airport designator
Station Type Date Time Source
DNAA METAR 2021/09/23 17:00 UTC NOAA

DNAA 231700Z 26005KT 9999 BKN012 28/24 Q1012 NOSIG


Station Type Date Time Source
DNAA Decoded METAR 2021/09/23 17:00 UTC NOAA

Station name not available
Sep 23, 2021 - 01:00 PM EDT / 2021.09.23 1700 UTC
Wind: from the W (260 degrees) at 6 MPH (5 KT):0
Visibility: greater than 7 mile(s):0
Sky conditions: mostly cloudy
Temperature: 82 F (28 C)
Dew Point: 75 F (24 C)
Relative Humidity: 78%
Pressure (altimeter): 29.88 in. Hg (1012 hPa)
ob: DNAA 231700Z 26005KT 9999 BKN012 28/24 Q1012 NOSIG
cycle: 17

Station Type Date Time Source
DNAA TAF 2021/09/23 18:21 UTC NOAA

TAF DNAA 231700Z 2318/2424 25005KT 9999 BKN012 PROB30
TEMPO 2318/2321 09020KT -TSRA BKN009 FEW019CB
BECMG 2321/2323 14010KT FEW008
BECMG 2409/2411 24005KT BKN011
TEMPO 2415/2421 TS SCT012 FEW020CB PROB30 2416/2419 08018G30KT 5000 -TSRA BKN008 FEW019CB
BECMG 2421/2423 14010KT CAVOK

Example: see airport list